sensor_id;sensor_type;location;lat;lon;timestamp;pressure;altitude;pressure_sealevel;temperature;humidity
14295;BME280;7231;59.370;18.016;2024-03-07T00:01:19;103124.13;;;-2.85;95.13
14295;BME280;7231;59.370;18.016;2024-03-07T00:03:47;103136.59;;;-2.74;95.41
14295;BME280;7231;59.370;18.016;2024-03-07T00:06:17;103126.31;;;-2.74;95.30
14295;BME280;7231;59.370;18.016;2024-03-07T00:08:45;103122.09;;;-2.80;95.57
14295;BME280;7231;59.370;18.016;2024-03-07T00:11:13;103135.66;;;-2.74;95.51
14295;BME280;7231;59.370;18.016;2024-03-07T00:13:44;103136.94;;;-2.71;96.00
14295;BME280;7231;59.370;18.016;2024-03-07T00:16:14;103126.13;;;-2.68;95.85
14295;BME280;7231;59.370;18.016;2024-03-07T00:18:43;103127.59;;;-2.70;95.96
14295;BME280;7231;59.370;18.016;2024-03-07T00:21:11;103075.22;;;-3.08;95.92
14295;BME280;7231;59.370;18.016;2024-03-07T00:23:39;103114.25;;;-2.89;95.97
14295;BME280;7231;59.370;18.016;2024-03-07T00:26:07;103129.09;;;-2.86;96.34
14295;BME280;7231;59.370;18.016;2024-03-07T00:28:38;103131.28;;;-2.89;96.30
14295;BME280;7231;59.370;18.016;2024-03-07T00:31:08;103100.53;;;-3.11;96.37
14295;BME280;7231;59.370;18.016;2024-03-07T00:33:36;103080.56;;;-3.28;96.16
14295;BME280;7231;59.370;18.016;2024-03-07T00:36:24;103125.63;;;-3.08;96.44
14295;BME280;7231;59.370;18.016;2024-03-07T00:38:53;103125.81;;;-3.14;96.83
14295;BME280;7231;59.370;18.016;2024-03-07T00:41:21;103127.28;;;-3.16;96.81
14295;BME280;7231;59.370;18.016;2024-03-07T00:43:49;103118.50;;;-3.18;96.79
14295;BME280;7231;59.370;18.016;2024-03-07T00:46:19;103120.31;;;-3.17;96.86
14295;BME280;7231;59.370;18.016;2024-03-07T00:48:47;103016.66;;;-3.76;96.89
14295;BME280;7231;59.370;18.016;2024-03-07T00:51:15;103117.59;;;-3.18;96.79
14295;BME280;7231;59.370;18.016;2024-03-07T00:53:44;103096.50;;;-3.30;97.07
14295;BME280;7231;59.370;18.016;2024-03-07T00:56:14;103106.59;;;-3.24;97.50
14295;BME280;7231;59.370;18.016;2024-03-07T00:58:42;103119.59;;;-3.23;97.36
14295;BME280;7231;59.370;18.016;2024-03-07T01:01:10;103118.88;;;-3.29;97.48
14295;BME280;7231;59.370;18.016;2024-03-07T01:03:40;103111.53;;;-3.33;97.37
14295;BME280;7231;59.370;18.016;2024-03-07T01:06:11;103113.56;;;-3.38;97.71
14295;BME280;7231;59.370;18.016;2024-03-07T01:08:39;103111.00;;;-3.45;97.86
14295;BME280;7231;59.370;18.016;2024-03-07T01:11:08;103049.44;;;-3.87;97.75
14295;BME280;7231;59.370;18.016;2024-03-07T01:13:39;103115.75;;;-3.55;98.00
14295;BME280;7231;59.370;18.016;2024-03-07T01:16:08;103071.22;;;-3.84;98.03
14295;BME280;7231;59.370;18.016;2024-03-07T01:18:37;103113.91;;;-3.63;97.79
14295;BME280;7231;59.370;18.016;2024-03-07T01:21:07;103086.97;;;-3.81;98.25
14295;BME280;7231;59.370;18.016;2024-03-07T01:23:35;103115.91;;;-3.68;98.21
14295;BME280;7231;59.370;18.016;2024-03-07T01:26:04;103085.50;;;-3.79;98.14
14295;BME280;7231;59.370;18.016;2024-03-07T01:28:32;103068.28;;;-3.87;98.19
14295;BME280;7231;59.370;18.016;2024-03-07T01:31:00;103073.41;;;-3.87;98.34
14295;BME280;7231;59.370;18.016;2024-03-07T01:33:29;103104.75;;;-3.68;98.32
14295;BME280;7231;59.370;18.016;2024-03-07T01:35:57;103100.91;;;-3.65;98.63
14295;BME280;7231;59.370;18.016;2024-03-07T01:38:27;103099.44;;;-3.63;98.85
14295;BME280;7231;59.370;18.016;2024-03-07T01:40:55;103070.50;;;-3.76;98.30
14295;BME280;7231;59.370;18.016;2024-03-07T01:43:24;103093.22;;;-3.57;98.64
14295;BME280;7231;59.370;18.016;2024-03-07T01:45:53;103085.91;;;-3.54;98.77
14295;BME280;7231;59.370;18.016;2024-03-07T01:48:26;103000.91;;;-4.00;98.85
14295;BME280;7231;59.370;18.016;2024-03-07T01:50:56;103085.16;;;-3.46;98.54
14295;BME280;7231;59.370;18.016;2024-03-07T01:53:27;103055.66;;;-3.64;98.80
14295;BME280;7231;59.370;18.016;2024-03-07T01:55:56;103087.34;;;-3.42;99.17
14295;BME280;7231;59.370;18.016;2024-03-07T01:58:25;103086.44;;;-3.43;98.98
14295;BME280;7231;59.370;18.016;2024-03-07T02:00:53;103050.72;;;-3.63;99.06
14295;BME280;7231;59.370;18.016;2024-03-07T02:03:21;103084.25;;;-3.40;98.91
14295;BME280;7231;59.370;18.016;2024-03-07T02:05:49;103020.69;;;-3.85;99.23
14295;BME280;7231;59.370;18.016;2024-03-07T02:08:18;103000.91;;;-3.86;99.19
14295;BME280;7231;59.370;18.016;2024-03-07T02:10:48;103084.78;;;-3.42;99.25
14295;BME280;7231;59.370;18.016;2024-03-07T02:13:16;103080.41;;;-3.43;99.31
14295;BME280;7231;59.370;18.016;2024-03-07T02:15:45;103058.78;;;-3.60;99.61
14295;BME280;7231;59.370;18.016;2024-03-07T02:18:13;103059.50;;;-3.53;99.79
14295;BME280;7231;59.370;18.016;2024-03-07T02:20:44;103057.69;;;-3.54;99.26
14295;BME280;7231;59.370;18.016;2024-03-07T02:23:13;103053.84;;;-3.58;99.35
14295;BME280;7231;59.370;18.016;2024-03-07T02:25:42;103055.66;;;-3.57;99.48
14295;BME280;7231;59.370;18.016;2024-03-07T02:28:11;103066.09;;;-3.48;99.87
14295;BME280;7231;59.370;18.016;2024-03-07T02:30:39;103062.06;;;-3.46;100.00
14295;BME280;7231;59.370;18.016;2024-03-07T02:33:08;103045.22;;;-3.51;100.00
14295;BME280;7231;59.370;18.016;2024-03-07T02:35:37;103047.97;;;-3.50;100.00
14295;BME280;7231;59.370;18.016;2024-03-07T02:38:07;103067.19;;;-3.39;100.00
14295;BME280;7231;59.370;18.016;2024-03-07T02:40:35;103066.47;;;-3.38;100.00
14295;BME280;7231;59.370;18.016;2024-03-07T02:43:03;103063.00;;;-3.39;100.00
14295;BME280;7231;59.370;18.016;2024-03-07T02:45:34;103057.84;;;-3.39;100.00
14295;BME280;7231;59.370;18.016;2024-03-07T02:48:03;103045.59;;;-3.48;100.00
14295;BME280;7231;59.370;18.016;2024-03-07T02:50:32;103037.16;;;-3.47;100.00
14295;BME280;7231;59.370;18.016;2024-03-07T02:53:01;103059.13;;;-3.35;100.00
14295;BME280;7231;59.370;18.016;2024-03-07T02:55:32;103028.00;;;-3.45;100.00
14295;BME280;7231;59.370;18.016;2024-03-07T02:58:01;103018.13;;;-3.56;100.00
14295;BME280;7231;59.370;18.016;2024-03-07T03:00:29;103045.59;;;-3.34;100.00
14295;BME280;7231;59.370;18.016;2024-03-07T03:02:57;102958.44;;;-3.84;100.00
14295;BME280;7231;59.370;18.016;2024-03-07T03:05:25;103043.00;;;-3.34;100.00
14295;BME280;7231;59.370;18.016;2024-03-07T03:07:54;103038.63;;;-3.35;100.00
14295;BME280;7231;59.370;18.016;2024-03-07T03:10:23;103035.13;;;-3.36;100.00
14295;BME280;7231;59.370;18.016;2024-03-07T03:12:56;103033.13;;;-3.38;100.00
14295;BME280;7231;59.370;18.016;2024-03-07T03:15:27;103033.84;;;-3.39;100.00
14295;BME280;7231;59.370;18.016;2024-03-07T03:17:56;103027.81;;;-3.40;100.00
14295;BME280;7231;59.370;18.016;2024-03-07T03:20:27;102995.78;;;-3.57;100.00
14295;BME280;7231;59.370;18.016;2024-03-07T03:23:01;103021.41;;;-3.43;100.00
14295;BME280;7231;59.370;18.016;2024-03-07T03:25:46;103011.34;;;-3.56;100.00
14295;BME280;7231;59.370;18.016;2024-03-07T03:28:18;103028.56;;;-3.48;100.00
14295;BME280;7231;59.370;18.016;2024-03-07T03:30:48;103024.34;;;-3.47;100.00
14295;BME280;7231;59.370;18.016;2024-03-07T03:33:17;103025.06;;;-3.48;100.00
14295;BME280;7231;59.370;18.016;2024-03-07T03:35:47;103021.03;;;-3.46;100.00
14295;BME280;7231;59.370;18.016;2024-03-07T03:38:16;103003.09;;;-3.61;100.00
14295;BME280;7231;59.370;18.016;2024-03-07T03:40:46;103020.31;;;-3.45;100.00
14295;BME280;7231;59.370;18.016;2024-03-07T03:43:15;103022.13;;;-3.44;100.00
14295;BME280;7231;59.370;18.016;2024-03-07T03:45:44;103016.81;;;-3.46;100.00
14295;BME280;7231;59.370;18.016;2024-03-07T03:48:14;103011.69;;;-3.46;100.00
14295;BME280;7231;59.370;18.016;2024-03-07T03:50:43;103008.97;;;-3.47;100.00
14295;BME280;7231;59.370;18.016;2024-03-07T03:53:13;102988.81;;;-3.58;100.00
14295;BME280;7231;59.370;18.016;2024-03-07T03:55:41;102946.34;;;-3.85;100.00
14295;BME280;7231;59.370;18.016;2024-03-07T03:58:09;102993.94;;;-3.58;100.00
14295;BME280;7231;59.370;18.016;2024-03-07T04:00:39;102988.47;;;-3.62;100.00
14295;BME280;7231;59.370;18.016;2024-03-07T04:03:08;103007.31;;;-3.47;100.00
14295;BME280;7231;59.370;18.016;2024-03-07T04:05:36;103010.78;;;-3.46;100.00
14295;BME280;7231;59.370;18.016;2024-03-07T04:08:05;102982.41;;;-3.62;100.00
14295;BME280;7231;59.370;18.016;2024-03-07T04:10:34;103008.22;;;-3.46;100.00
14295;BME280;7231;59.370;18.016;2024-03-07T04:13:02;103005.66;;;-3.46;100.00
14295;BME280;7231;59.370;18.016;2024-03-07T04:15:30;103001.25;;;-3.47;100.00
14295;BME280;7231;59.370;18.016;2024-03-07T04:18:03;103005.66;;;-3.46;100.00
14295;BME280;7231;59.370;18.016;2024-03-07T04:20:33;102974.53;;;-3.64;100.00
14295;BME280;7231;59.370;18.016;2024-03-07T04:23:02;102983.31;;;-3.62;100.00
14295;BME280;7231;59.370;18.016;2024-03-07T04:25:30;102997.97;;;-3.46;100.00
14295;BME280;7231;59.370;18.016;2024-03-07T04:28:00;103000.53;;;-3.46;100.00
14295;BME280;7231;59.370;18.016;2024-03-07T04:30:28;102933.53;;;-3.78;100.00
14295;BME280;7231;59.370;18.016;2024-03-07T04:32:56;102994.66;;;-3.45;100.00
14295;BME280;7231;59.370;18.016;2024-03-07T04:35:28;102988.78;;;-3.44;100.00
14295;BME280;7231;59.370;18.016;2024-03-07T04:37:57;102985.13;;;-3.46;100.00
14295;BME280;7231;59.370;18.016;2024-03-07T04:40:25;102980.94;;;-3.46;100.00
14295;BME280;7231;59.370;18.016;2024-03-07T04:42:54;102982.56;;;-3.46;100.00
14295;BME280;7231;59.370;18.016;2024-03-07T04:45:23;102966.84;;;-3.56;100.00
14295;BME280;7231;59.370;18.016;2024-03-07T04:47:51;102947.06;;;-3.65;100.00
14295;BME280;7231;59.370;18.016;2024-03-07T04:50:20;102975.63;;;-3.47;100.00
14295;BME280;7231;59.370;18.016;2024-03-07T04:52:48;102973.78;;;-3.48;100.00
14295;BME280;7231;59.370;18.016;2024-03-07T04:55:18;102974.53;;;-3.49;100.00
14295;BME280;7231;59.370;18.016;2024-03-07T04:57:46;102974.53;;;-3.49;100.00
14295;BME280;7231;59.370;18.016;2024-03-07T05:00:15;102975.25;;;-3.50;100.00
14295;BME280;7231;59.370;18.016;2024-03-07T05:02:48;102972.69;;;-3.50;100.00
14295;BME280;7231;59.370;18.016;2024-03-07T05:05:17;102971.59;;;-3.45;100.00
14295;BME280;7231;59.370;18.016;2024-03-07T05:07:50;102950.34;;;-3.51;100.00
14295;BME280;7231;59.370;18.016;2024-03-07T05:10:20;102974.50;;;-3.42;100.00
14295;BME280;7231;59.370;18.016;2024-03-07T05:12:48;102963.72;;;-3.47;100.00
14295;BME280;7231;59.370;18.016;2024-03-07T05:15:17;102948.69;;;-3.51;100.00
14295;BME280;7231;59.370;18.016;2024-03-07T05:17:46;102966.81;;;-3.42;100.00
14295;BME280;7231;59.370;18.016;2024-03-07T05:20:14;102928.75;;;-3.61;100.00
14295;BME280;7231;59.370;18.016;2024-03-07T05:22:43;102790.88;;;-4.36;100.00
14295;BME280;7231;59.370;18.016;2024-03-07T05:25:19;102964.59;;;-3.39;100.00
14295;BME280;7231;59.370;18.016;2024-03-07T05:27:49;102962.78;;;-3.40;100.00
14295;BME280;7231;59.370;18.016;2024-03-07T05:30:18;102957.66;;;-3.40;100.00
14295;BME280;7231;59.370;18.016;2024-03-07T05:32:48;102852.66;;;-3.97;100.00
14295;BME280;7231;59.370;18.016;2024-03-07T05:35:16;102954.34;;;-3.39;100.00
14295;BME280;7231;59.370;18.016;2024-03-07T05:37:48;102904.22;;;-3.66;100.00
14295;BME280;7231;59.370;18.016;2024-03-07T05:40:20;102954.16;;;-3.41;100.00
14295;BME280;7231;59.370;18.016;2024-03-07T05:42:49;102952.50;;;-3.40;100.00
14295;BME280;7231;59.370;18.016;2024-03-07T05:45:17;102946.28;;;-3.42;100.00
14295;BME280;7231;59.370;18.016;2024-03-07T05:47:46;102903.31;;;-3.66;100.00
14295;BME280;7231;59.370;18.016;2024-03-07T05:50:16;102914.81;;;-3.55;100.00
14295;BME280;7231;59.370;18.016;2024-03-07T05:52:45;102916.63;;;-3.47;100.00
14295;BME280;7231;59.370;18.016;2024-03-07T05:55:15;102938.19;;;-3.31;100.00
14295;BME280;7231;59.370;18.016;2024-03-07T05:57:47;102917.88;;;-3.37;100.00
14295;BME280;7231;59.370;18.016;2024-03-07T06:00:16;102935.97;;;-3.21;100.00
14295;BME280;7231;59.370;18.016;2024-03-07T06:02:55;102922.59;;;-3.25;100.00
14295;BME280;7231;59.370;18.016;2024-03-07T06:05:23;102938.13;;;-3.10;100.00
14295;BME280;7231;59.370;18.016;2024-03-07T06:07:54;102935.53;;;-3.03;100.00
14295;BME280;7231;59.370;18.016;2024-03-07T06:10:23;102934.22;;;-2.99;100.00
14295;BME280;7231;59.370;18.016;2024-03-07T06:12:53;102902.94;;;-3.11;100.00
14295;BME280;7231;59.370;18.016;2024-03-07T06:15:37;102876.78;;;-3.22;100.00
14295;BME280;7231;59.370;18.016;2024-03-07T06:18:05;102935.25;;;-2.83;100.00
14295;BME280;7231;59.370;18.016;2024-03-07T06:20:35;102933.78;;;-2.81;100.00
14295;BME280;7231;59.370;18.016;2024-03-07T06:23:03;102914.53;;;-2.84;100.00
14295;BME280;7231;59.370;18.016;2024-03-07T06:25:32;102897.53;;;-2.91;100.00
14295;BME280;7231;59.370;18.016;2024-03-07T06:28:06;102930.94;;;-2.68;100.00
14295;BME280;7231;59.370;18.016;2024-03-07T06:30:39;102928.16;;;-2.63;100.00
14295;BME280;7231;59.370;18.016;2024-03-07T06:33:08;102933.78;;;-2.58;100.00
14295;BME280;7231;59.370;18.016;2024-03-07T06:35:39;102924.56;;;-2.49;100.00
14295;BME280;7231;59.370;18.016;2024-03-07T06:38:09;102887.28;;;-2.45;100.00
14295;BME280;7231;59.370;18.016;2024-03-07T06:40:38;102900.19;;;-2.07;100.00
14295;BME280;7231;59.370;18.016;2024-03-07T06:43:08;102927.25;;;-1.56;100.00
14295;BME280;7231;59.370;18.016;2024-03-07T06:45:37;102922.63;;;-1.20;100.00
14295;BME280;7231;59.370;18.016;2024-03-07T06:48:07;102867.88;;;-1.10;100.00
14295;BME280;7231;59.370;18.016;2024-03-07T06:50:38;102918.31;;;-0.48;100.00
14295;BME280;7231;59.370;18.016;2024-03-07T06:53:11;102913.47;;;-0.20;100.00
14295;BME280;7231;59.370;18.016;2024-03-07T06:55:39;102916.41;;;-0.09;100.00
14295;BME280;7231;59.370;18.016;2024-03-07T06:58:09;102877.47;;;-0.36;100.00
14295;BME280;7231;59.370;18.016;2024-03-07T07:00:37;102899.94;;;-0.26;100.00
14295;BME280;7231;59.370;18.016;2024-03-07T07:03:07;102915.47;;;-0.42;100.00
14295;BME280;7231;59.370;18.016;2024-03-07T07:05:37;102913.59;;;-0.52;100.00
14295;BME280;7231;59.370;18.016;2024-03-07T07:08:05;102901.78;;;-0.50;100.00
14295;BME280;7231;59.370;18.016;2024-03-07T07:10:34;102909.94;;;-0.29;100.00
14295;BME280;7231;59.370;18.016;2024-03-07T07:13:03;102904.75;;;-0.05;100.00
14295;BME280;7231;59.370;18.016;2024-03-07T07:15:33;102874.13;;;-0.02;100.00
14295;BME280;7231;59.370;18.016;2024-03-07T07:18:04;102897.91;;;0.54;100.00
14295;BME280;7231;59.370;18.016;2024-03-07T07:20:34;102891.72;;;0.87;100.00
14295;BME280;7231;59.370;18.016;2024-03-07T07:23:03;102894.00;;;1.10;100.00
14295;BME280;7231;59.370;18.016;2024-03-07T07:25:31;102890.31;;;1.42;100.00
14295;BME280;7231;59.370;18.016;2024-03-07T07:28:01;102879.25;;;1.79;100.00
14295;BME280;7231;59.370;18.016;2024-03-07T07:30:33;102863.72;;;2.15;100.00
14295;BME280;7231;59.370;18.016;2024-03-07T07:33:02;102888.41;;;2.39;100.00
14295;BME280;7231;59.370;18.016;2024-03-07T07:35:30;102889.88;;;2.46;100.00
14295;BME280;7231;59.370;18.016;2024-03-07T07:37:59;102880.22;;;2.72;100.00
14295;BME280;7231;59.370;18.016;2024-03-07T07:40:28;102876.03;;;3.31;100.00
14295;BME280;7231;59.370;18.016;2024-03-07T07:42:59;102845.19;;;3.63;100.00
14295;BME280;7231;59.370;18.016;2024-03-07T07:45:28;102863.34;;;4.42;100.00
14295;BME280;7231;59.370;18.016;2024-03-07T07:47:57;102853.72;;;4.72;100.00
14295;BME280;7231;59.370;18.016;2024-03-07T07:50:26;102869.94;;;4.89;99.37
14295;BME280;7231;59.370;18.016;2024-03-07T07:52:56;102863.50;;;5.16;96.23
14295;BME280;7231;59.370;18.016;2024-03-07T07:55:27;102856.75;;;5.40;95.79
14295;BME280;7231;59.370;18.016;2024-03-07T07:57:57;102868.41;;;5.55;91.63
14295;BME280;7231;59.370;18.016;2024-03-07T08:00:26;102866.91;;;5.15;90.12
14295;BME280;7231;59.370;18.016;2024-03-07T08:02:59;102865.34;;;5.17;89.25
14295;BME280;7231;59.370;18.016;2024-03-07T08:05:29;102860.88;;;5.48;88.15
14295;BME280;7231;59.370;18.016;2024-03-07T08:08:00;102852.94;;;5.79;84.95
14295;BME280;7231;59.370;18.016;2024-03-07T08:10:30;102860.72;;;5.89;84.29
14295;BME280;7231;59.370;18.016;2024-03-07T08:12:59;102859.09;;;6.35;82.69
14295;BME280;7231;59.370;18.016;2024-03-07T08:15:28;102854.41;;;6.64;80.92
14295;BME280;7231;59.370;18.016;2024-03-07T08:17:59;102845.28;;;7.16;79.04
14295;BME280;7231;59.370;18.016;2024-03-07T08:20:28;102838.78;;;7.46;75.21
14295;BME280;7231;59.370;18.016;2024-03-07T08:22:57;102852.66;;;7.10;74.84
14295;BME280;7231;59.370;18.016;2024-03-07T08:25:29;102844.47;;;7.29;76.45
14295;BME280;7231;59.370;18.016;2024-03-07T08:27:57;102853.97;;;7.88;74.85
14295;BME280;7231;59.370;18.016;2024-03-07T08:30:26;102854.28;;;7.68;73.94
14295;BME280;7231;59.370;18.016;2024-03-07T08:32:57;102834.31;;;7.68;72.13
14295;BME280;7231;59.370;18.016;2024-03-07T08:35:29;102844.97;;;7.96;72.14
14295;BME280;7231;59.370;18.016;2024-03-07T08:37:57;102849.03;;;8.29;70.16
14295;BME280;7231;59.370;18.016;2024-03-07T08:40:28;102831.97;;;8.59;68.96
14295;BME280;7231;59.370;18.016;2024-03-07T08:43:00;102838.56;;;9.05;68.25
14295;BME280;7231;59.370;18.016;2024-03-07T08:45:29;102830.38;;;9.40;67.37
14295;BME280;7231;59.370;18.016;2024-03-07T08:48:03;102839.69;;;9.76;65.64
14295;BME280;7231;59.370;18.016;2024-03-07T08:50:32;102791.94;;;9.67;63.77
14295;BME280;7231;59.370;18.016;2024-03-07T08:53:02;102832.34;;;9.99;63.24
14295;BME280;7231;59.370;18.016;2024-03-07T08:55:31;102830.41;;;10.09;62.59
14295;BME280;7231;59.370;18.016;2024-03-07T08:57:59;102827.69;;;10.36;62.92
14295;BME280;7231;59.370;18.016;2024-03-07T09:00:27;102788.13;;;10.62;61.76
14295;BME280;7231;59.370;18.016;2024-03-07T09:02:57;102817.16;;;11.10;60.04
14295;BME280;7231;59.370;18.016;2024-03-07T09:05:30;102827.56;;;11.08;59.50
14295;BME280;7231;59.370;18.016;2024-03-07T09:08:01;102799.88;;;10.98;57.42
14295;BME280;7231;59.370;18.016;2024-03-07T09:10:30;102824.78;;;10.76;57.26
14295;BME280;7231;59.370;18.016;2024-03-07T09:12:58;102805.78;;;10.35;57.15
14295;BME280;7231;59.370;18.016;2024-03-07T09:15:27;102827.13;;;10.56;57.93
14295;BME280;7231;59.370;18.016;2024-03-07T09:17:55;102816.00;;;10.60;56.97
14295;BME280;7231;59.370;18.016;2024-03-07T09:20:26;102719.66;;;10.58;56.62
14295;BME280;7231;59.370;18.016;2024-03-07T09:22:55;102799.34;;;10.89;54.48
14295;BME280;7231;59.370;18.016;2024-03-07T09:25:24;102791.31;;;10.71;55.96
14295;BME280;7231;59.370;18.016;2024-03-07T09:27:53;102810.59;;;11.18;53.98
14295;BME280;7231;59.370;18.016;2024-03-07T09:30:22;102794.56;;;11.28;54.01
14295;BME280;7231;59.370;18.016;2024-03-07T09:32:54;102801.34;;;11.24;53.96
14295;BME280;7231;59.370;18.016;2024-03-07T09:35:23;102806.19;;;11.48;53.68
14295;BME280;7231;59.370;18.016;2024-03-07T09:37:52;102709.28;;;10.90;51.77
14295;BME280;7231;59.370;18.016;2024-03-07T09:40:23;102796.84;;;11.22;51.36
14295;BME280;7231;59.370;18.016;2024-03-07T09:42:55;102781.72;;;10.72;52.05
14295;BME280;7231;59.370;18.016;2024-03-07T09:45:29;102793.59;;;11.11;51.79
14295;BME280;7231;59.370;18.016;2024-03-07T09:48:01;102800.50;;;11.40;51.56
14295;BME280;7231;59.370;18.016;2024-03-07T09:50:30;102792.00;;;11.60;51.42
14295;BME280;7231;59.370;18.016;2024-03-07T09:52:59;102754.72;;;11.67;50.92
14295;BME280;7231;59.370;18.016;2024-03-07T09:55:29;102790.50;;;11.96;49.44
14295;BME280;7231;59.370;18.016;2024-03-07T09:57:58;102787.28;;;12.02;49.71
14295;BME280;7231;59.370;18.016;2024-03-07T10:00:29;102779.47;;;12.03;49.20
14295;BME280;7231;59.370;18.016;2024-03-07T10:03:05;102790.69;;;11.68;48.58
14295;BME280;7231;59.370;18.016;2024-03-07T10:05:34;102775.22;;;11.42;48.52
14295;BME280;7231;59.370;18.016;2024-03-07T10:08:05;102777.28;;;11.64;48.89
14295;BME280;7231;59.370;18.016;2024-03-07T10:10:36;102767.69;;;11.64;47.93
14295;BME280;7231;59.370;18.016;2024-03-07T10:13:04;102773.03;;;11.19;48.46
14295;BME280;7231;59.370;18.016;2024-03-07T10:15:35;102760.66;;;11.01;47.76
14295;BME280;7231;59.370;18.016;2024-03-07T10:18:06;102743.50;;;10.92;48.43
14295;BME280;7231;59.370;18.016;2024-03-07T10:20:38;102741.66;;;11.53;48.36
14295;BME280;7231;59.370;18.016;2024-03-07T10:23:09;102722.53;;;11.88;47.39
14295;BME280;7231;59.370;18.016;2024-03-07T10:25:40;102747.41;;;12.11;46.71
14295;BME280;7231;59.370;18.016;2024-03-07T10:28:09;102761.44;;;12.27;46.90
14295;BME280;7231;59.370;18.016;2024-03-07T10:30:41;102724.06;;;12.17;46.96
14295;BME280;7231;59.370;18.016;2024-03-07T10:33:11;102759.41;;;12.74;46.52
14295;BME280;7231;59.370;18.016;2024-03-07T10:35:41;102747.38;;;12.61;46.01
14295;BME280;7231;59.370;18.016;2024-03-07T10:38:09;102756.03;;;12.76;46.74
14295;BME280;7231;59.370;18.016;2024-03-07T10:40:43;102749.34;;;12.83;46.20
14295;BME280;7231;59.370;18.016;2024-03-07T10:43:13;102750.91;;;12.97;45.01
14295;BME280;7231;59.370;18.016;2024-03-07T10:45:44;102747.47;;;12.98;45.27
14295;BME280;7231;59.370;18.016;2024-03-07T10:48:18;102720.28;;;12.99;44.96
14295;BME280;7231;59.370;18.016;2024-03-07T10:50:55;102743.94;;;13.35;45.22
14295;BME280;7231;59.370;18.016;2024-03-07T10:53:31;102745.81;;;13.37;43.63
14295;BME280;7231;59.370;18.016;2024-03-07T10:56:23;102735.50;;;13.42;43.52
14295;BME280;7231;59.370;18.016;2024-03-07T10:58:58;102724.09;;;13.23;43.54
14295;BME280;7231;59.370;18.016;2024-03-07T11:01:30;102728.81;;;13.30;43.37
14295;BME280;7231;59.370;18.016;2024-03-07T11:04:01;102731.97;;;13.60;43.80
14295;BME280;7231;59.370;18.016;2024-03-07T11:06:32;102717.13;;;13.82;43.15
14295;BME280;7231;59.370;18.016;2024-03-07T11:09:03;102692.78;;;13.29;42.44
14295;BME280;7231;59.370;18.016;2024-03-07T11:11:39;102728.56;;;13.44;43.43
14295;BME280;7231;59.370;18.016;2024-03-07T11:14:11;102719.00;;;13.84;42.39
14295;BME280;7231;59.370;18.016;2024-03-07T11:16:40;102717.59;;;14.33;42.15
14295;BME280;7231;59.370;18.016;2024-03-07T11:19:27;102719.38;;;14.74;40.85
14295;BME280;7231;59.370;18.016;2024-03-07T11:21:58;102716.09;;;14.58;41.03
14295;BME280;7231;59.370;18.016;2024-03-07T11:24:30;102711.53;;;14.54;40.77
14295;BME280;7231;59.370;18.016;2024-03-07T11:27:02;102712.34;;;14.74;40.14
14295;BME280;7231;59.370;18.016;2024-03-07T11:29:42;102705.19;;;14.30;39.63
14295;BME280;7231;59.370;18.016;2024-03-07T11:32:11;102700.19;;;13.77;40.39
14295;BME280;7231;59.370;18.016;2024-03-07T11:34:42;102707.91;;;13.72;40.11
14295;BME280;7231;59.370;18.016;2024-03-07T11:37:17;102691.59;;;13.61;39.74
14295;BME280;7231;59.370;18.016;2024-03-07T11:39:50;102696.31;;;13.49;39.95
14295;BME280;7231;59.370;18.016;2024-03-07T11:42:25;102675.66;;;13.58;39.53
14295;BME280;7231;59.370;18.016;2024-03-07T11:44:56;102691.66;;;13.82;39.87
14295;BME280;7231;59.370;18.016;2024-03-07T11:47:25;102686.56;;;14.27;39.59
14295;BME280;7231;59.370;18.016;2024-03-07T11:49:56;102665.94;;;14.58;39.20
14295;BME280;7231;59.370;18.016;2024-03-07T11:52:25;102672.84;;;14.77;39.14
14295;BME280;7231;59.370;18.016;2024-03-07T11:54:54;102674.47;;;15.18;38.73
14295;BME280;7231;59.370;18.016;2024-03-07T11:57:33;102640.44;;;14.81;38.40
14295;BME280;7231;59.370;18.016;2024-03-07T12:00:02;102670.22;;;15.22;38.07
14295;BME280;7231;59.370;18.016;2024-03-07T12:02:36;102673.88;;;15.03;38.59
14295;BME280;7231;59.370;18.016;2024-03-07T12:05:07;102677.81;;;14.70;38.04
14295;BME280;7231;59.370;18.016;2024-03-07T12:07:36;102671.00;;;14.75;38.52
14295;BME280;7231;59.370;18.016;2024-03-07T12:10:05;102665.13;;;14.82;37.96
14295;BME280;7231;59.370;18.016;2024-03-07T12:12:36;102661.72;;;14.64;38.17
14295;BME280;7231;59.370;18.016;2024-03-07T12:15:06;102668.13;;;14.91;37.81
14295;BME280;7231;59.370;18.016;2024-03-07T12:17:42;102665.00;;;15.01;37.66
14295;BME280;7231;59.370;18.016;2024-03-07T12:20:12;102647.81;;;15.12;37.37
14295;BME280;7231;59.370;18.016;2024-03-07T12:22:58;102662.56;;;15.30;36.71
14295;BME280;7231;59.370;18.016;2024-03-07T12:25:28;102651.84;;;15.49;36.55
14295;BME280;7231;59.370;18.016;2024-03-07T12:28:06;102646.38;;;15.68;35.88
14295;BME280;7231;59.370;18.016;2024-03-07T12:30:48;102662.28;;;15.94;35.78
14295;BME280;7231;59.370;18.016;2024-03-07T12:33:20;102650.31;;;16.05;35.62
14295;BME280;7231;59.370;18.016;2024-03-07T12:35:50;102652.13;;;16.06;35.51
14295;BME280;7231;59.370;18.016;2024-03-07T12:38:27;102658.19;;;16.55;35.25
14295;BME280;7231;59.370;18.016;2024-03-07T12:41:04;102632.75;;;16.87;34.29
14295;BME280;7231;59.370;18.016;2024-03-07T12:43:36;102659.69;;;17.31;33.60
14295;BME280;7231;59.370;18.016;2024-03-07T12:46:05;102646.28;;;17.57;33.14
14295;BME280;7231;59.370;18.016;2024-03-07T12:48:35;102641.97;;;17.60;33.06
14295;BME280;7231;59.370;18.016;2024-03-07T12:51:06;102643.06;;;17.37;32.96
14295;BME280;7231;59.370;18.016;2024-03-07T12:53:34;102632.28;;;17.31;32.76
14295;BME280;7231;59.370;18.016;2024-03-07T12:56:03;102618.84;;;16.95;32.82
14295;BME280;7231;59.370;18.016;2024-03-07T12:58:31;102631.22;;;16.40;33.10
14295;BME280;7231;59.370;18.016;2024-03-07T13:01:01;102637.63;;;16.74;33.18
14295;BME280;7231;59.370;18.016;2024-03-07T13:03:28;102613.97;;;17.08;32.79